Time;durP1;ratioP1;P1;durP2;ratioP2;P2;SDS_P1;SDS_P2;PMS_P1;PMS_P2;Temp;Humidity;BMP_temperature;BMP_pressure;BME280_temperature;BME280_humidity;BME280_pressure;Samples;Min_cycle;Max_cycle;Signal;HPM_P1;HPM_P2
2023/08/05 00:00:16;;;;;;;11.63;4.72;;;;;;;15.91;100.00;101316.84;4988798;28;20062;-73
2023/08/05 00:02:43;;;;;;;15.23;5.20;;;;;;;15.89;100.00;101316.50;4993338;28;20846;-75
2023/08/05 00:05:09;;;;;;;16.80;4.32;;;;;;;15.91;100.00;101316.84;4988513;28;20085;-76
2023/08/05 00:07:36;;;;;;;11.15;3.92;;;;;;;15.91;100.00;101316.06;4988043;28;20053;-74
2023/08/05 00:10:03;;;;;;;11.73;4.25;;;;;;;15.88;100.00;101314.94;4989085;28;20063;-75
2023/08/05 00:12:29;;;;;;;11.82;3.78;;;;;;;15.85;100.00;101315.81;4987016;28;20051;-76
2023/08/05 00:14:56;;;;;;;13.45;3.95;;;;;;;15.79;100.00;101314.75;4987944;28;20109;-76
2023/08/05 00:17:22;;;;;;;9.40;3.95;;;;;;;15.67;100.00;101321.06;4986052;28;20088;-75
2023/08/05 00:19:50;;;;;;;11.55;4.60;;;;;;;15.63;100.00;101314.75;4988905;28;20043;-77
2023/08/05 00:22:17;;;;;;;12.70;5.10;;;;;;;15.61;100.00;101308.00;4989826;28;20069;-73
2023/08/05 00:24:43;;;;;;;13.65;4.45;;;;;;;15.61;100.00;101319.22;4988579;28;20104;-75
2023/08/05 00:27:10;;;;;;;12.80;4.65;;;;;;;15.57;100.00;101322.13;4989728;28;20120;-76
2023/08/05 00:29:36;;;;;;;14.07;5.15;;;;;;;15.50;100.00;101316.69;4988699;28;20046;-71
2023/08/05 00:32:03;;;;;;;12.95;5.05;;;;;;;15.49;100.00;101323.50;4988304;28;20059;-74
2023/08/05 00:34:30;;;;;;;13.52;5.55;;;;;;;15.30;100.00;101321.53;4987180;28;20061;-76
2023/08/05 00:36:56;;;;;;;11.57;4.82;;;;;;;15.26;100.00;101322.84;4985191;28;20054;-75
2023/08/05 00:39:23;;;;;;;15.77;5.60;;;;;;;15.17;100.00;101314.22;4988613;28;20050;-74
2023/08/05 00:41:49;;;;;;;15.43;5.78;;;;;;;15.11;100.00;101311.16;4985972;28;20078;-75
2023/08/05 00:44:16;;;;;;;11.40;5.30;;;;;;;15.04;100.00;101311.31;4988923;28;20462;-74
2023/08/05 00:46:42;;;;;;;11.80;5.65;;;;;;;15.08;100.00;101311.25;4988389;28;20062;-72
2023/08/05 00:49:09;;;;;;;13.63;5.32;;;;;;;15.02;100.00;101308.16;4989369;28;20050;-76
2023/08/05 00:51:37;;;;;;;16.42;5.40;;;;;;;15.09;100.00;101312.81;4969969;28;20113;-74
2023/08/05 00:54:04;;;;;;;12.73;5.00;;;;;;;15.14;100.00;101307.50;4986518;28;20140;-76
2023/08/05 00:56:31;;;;;;;14.15;4.95;;;;;;;15.17;100.00;101306.63;4992337;28;20042;-77
2023/08/05 00:58:57;;;;;;;12.07;4.32;;;;;;;14.94;100.00;101304.75;4987407;28;20100;-76
2023/08/05 01:01:24;;;;;;;12.50;5.38;;;;;;;14.75;100.00;101308.34;4988050;28;20074;-77
2023/08/05 01:03:51;;;;;;;12.80;5.65;;;;;;;14.80;100.00;101316.25;4988144;28;20152;-77
2023/08/05 01:06:20;;;;;;;14.02;6.22;;;;;;;14.85;100.00;101315.72;4969649;28;20054;-75
2023/08/05 01:08:48;;;;;;;11.70;6.10;;;;;;;14.91;100.00;101313.22;4986929;28;20112;-74
2023/08/05 01:11:16;;;;;;;16.40;5.93;;;;;;;14.96;100.00;101307.13;4987379;28;20140;-77
2023/08/05 01:13:44;;;;;;;14.05;5.78;;;;;;;14.98;100.00;101310.25;4995616;28;20050;-74
2023/08/05 01:16:10;;;;;;;12.68;5.28;;;;;;;14.96;100.00;101301.50;4990630;28;20120;-74
2023/08/05 01:18:39;;;;;;;13.10;5.60;;;;;;;14.98;100.00;101310.25;4988498;28;20107;-75
2023/08/05 01:21:17;;;;;;;11.57;5.03;;;;;;;14.98;100.00;101307.44;4980929;28;20137;-76
2023/08/05 01:23:59;;;;;;;14.45;5.13;;;;;;;14.94;100.00;101306.75;4986891;28;20077;-77
2023/08/05 01:26:26;;;;;;;11.50;5.20;;;;;;;14.98;100.00;101307.44;4973312;28;20101;-75
2023/08/05 01:28:53;;;;;;;12.00;4.90;;;;;;;14.98;100.00;101308.25;4994011;28;20057;-76
2023/08/05 01:31:20;;;;;;;11.43;4.57;;;;;;;14.95;100.00;101299.91;4987395;28;20208;-77
2023/08/05 01:33:47;;;;;;;13.35;4.50;;;;;;;14.93;100.00;101296.78;4986211;28;20387;-74
2023/08/05 01:36:20;;;;;;;17.05;4.63;;;;;;;14.89;100.00;101296.06;4985020;28;20058;-77
2023/08/05 01:38:48;;;;;;;15.30;5.30;;;;;;;14.88;100.00;101294.47;4995054;28;20136;-73
2023/08/05 01:41:15;;;;;;;11.90;4.93;;;;;;;14.83;100.00;101301.38;4989600;28;20054;-76
2023/08/05 01:43:42;;;;;;;13.02;4.47;;;;;;;14.84;100.00;101300.16;4988218;28;20070;-75
2023/08/05 01:46:08;;;;;;;14.43;4.55;;;;;;;14.81;100.00;101298.22;4992396;28;20134;-76
2023/08/05 01:48:35;;;;;;;13.02;5.00;;;;;;;14.80;100.00;101293.84;4991873;28;20578;-77
2023/08/05 01:51:01;;;;;;;18.63;5.10;;;;;;;14.80;100.00;101285.47;4992399;28;20058;-75
2023/08/05 01:53:28;;;;;;;24.40;5.78;;;;;;;14.76;100.00;101298.72;4990475;28;20565;-76
2023/08/05 01:55:54;;;;;;;15.15;5.40;;;;;;;14.76;100.00;101297.94;4988993;28;20050;-76
2023/08/05 01:58:21;;;;;;;15.30;6.25;;;;;;;14.76;100.00;101304.31;4990803;28;20050;-74
2023/08/05 02:00:52;;;;;;;12.23;4.75;;;;;;;14.74;100.00;101305.97;4990661;28;20081;-74
2023/08/05 02:03:19;;;;;;;9.35;4.45;;;;;;;14.75;100.00;101307.53;4990104;28;20061;-75
2023/08/05 02:05:46;;;;;;;14.93;5.15;;;;;;;14.73;100.00;101299.59;4992047;28;20113;-75
2023/08/05 02:08:13;;;;;;;16.08;6.13;;;;;;;14.71;100.00;101304.84;4990205;28;20486;-76
2023/08/05 02:10:40;;;;;;;12.43;4.63;;;;;;;14.72;100.00;101303.59;4990205;28;20188;-76
2023/08/05 02:13:07;;;;;;;14.20;5.22;;;;;;;14.72;100.00;101300.81;4990462;28;20129;-73
2023/08/05 02:15:34;;;;;;;12.93;5.25;;;;;;;14.70;100.00;101294.06;4991687;28;20058;-75
2023/08/05 02:18:00;;;;;;;12.05;4.80;;;;;;;14.73;100.00;101293.22;4991488;28;20136;-75
2023/08/05 02:20:27;;;;;;;10.00;5.05;;;;;;;14.74;100.00;101289.19;4997444;28;20126;-75
2023/08/05 02:22:53;;;;;;;14.75;5.63;;;;;;;14.70;100.00;101294.06;4991753;28;20047;-77
2023/08/05 02:25:20;;;;;;;12.52;5.22;;;;;;;14.68;100.00;101296.50;4992596;28;20073;-76
2023/08/05 02:27:46;;;;;;;13.80;5.07;;;;;;;14.68;100.00;101288.91;4993779;28;20506;-75
2023/08/05 02:30:16;;;;;;;11.35;4.60;;;;;;;14.66;100.00;101288.53;4996355;28;20062;-75
2023/08/05 02:32:43;;;;;;;12.88;5.20;;;;;;;14.66;100.00;101282.16;4991449;28;20046;-76
2023/08/05 02:35:09;;;;;;;17.38;4.95;;;;;;;14.63;100.00;101283.84;4990695;28;20066;-76
2023/08/05 02:37:36;;;;;;;14.90;5.63;;;;;;;14.59;100.00;101283.09;4991687;28;20058;-74
2023/08/05 02:40:03;;;;;;;11.80;4.85;;;;;;;14.54;100.00;101275.22;4995293;28;20537;-74
2023/08/05 02:42:30;;;;;;;10.93;4.53;;;;;;;14.55;100.00;101276.00;4991122;28;20526;-76
2023/08/05 02:44:57;;;;;;;14.85;4.60;;;;;;;14.52;100.00;101277.63;4990721;28;20081;-73
2023/08/05 02:47:23;;;;;;;10.00;5.28;;;;;;;14.49;100.00;101274.94;4991319;28;20054;-76
2023/08/05 02:49:50;;;;;;;11.27;4.93;;;;;;;14.40;100.00;101274.69;4989764;28;20634;-75
2023/08/05 02:52:17;;;;;;;18.88;4.70;;;;;;;14.42;100.00;101286.28;4988909;28;20058;-75
2023/08/05 02:54:43;;;;;;;12.77;4.80;;;;;;;14.39;100.00;101287.88;4989839;28;20499;-74
2023/08/05 02:57:10;;;;;;;12.70;5.13;;;;;;;14.39;100.00;101298.28;4991417;28;20058;-76
2023/08/05 02:59:37;;;;;;;9.45;4.65;;;;;;;14.30;100.00;101295.25;4988466;28;20050;-72
2023/08/05 03:02:04;;;;;;;11.68;5.10;;;;;;;14.26;100.00;101289.75;4988633;28;20057;-75
2023/08/05 03:04:30;;;;;;;20.08;5.68;;;;;;;14.21;100.00;101290.22;4991012;28;20046;-76
2023/08/05 03:06:57;;;;;;;10.55;4.63;;;;;;;14.24;100.00;101285.78;4989166;28;20105;-73
2023/08/05 03:09:23;;;;;;;13.57;4.78;;;;;;;14.22;100.00;101279.84;4988919;28;20058;-77
2023/08/05 03:11:50;;;;;;;13.57;5.18;;;;;;;14.18;100.00;101268.72;4989474;28;20086;-76
2023/08/05 03:14:16;;;;;;;18.88;5.00;;;;;;;14.17;100.00;101275.53;4989486;28;20116;-74
2023/08/05 03:16:43;;;;;;;15.10;4.95;;;;;;;14.16;100.00;101264.78;4990750;28;20832;-71
2023/08/05 03:19:09;;;;;;;11.43;4.85;;;;;;;14.16;100.00;101253.59;4988795;28;20058;-76
2023/08/05 03:21:36;;;;;;;11.50;4.78;;;;;;;14.16;100.00;101262.78;4988872;28;20070;-74
2023/08/05 03:24:03;;;;;;;11.98;5.20;;;;;;;14.15;100.00;101263.19;4989231;28;20049;-73
2023/08/05 03:26:29;;;;;;;15.52;5.25;;;;;;;14.13;100.00;101260.03;4988865;28;20086;-73
2023/08/05 03:28:55;;;;;;;11.52;4.38;;;;;;;14.09;100.00;101262.13;4989531;28;20140;-74
2023/08/05 03:31:22;;;;;;;14.18;5.75;;;;;;;14.04;100.00;101257.81;4990671;28;20124;-74
2023/08/05 03:33:49;;;;;;;15.32;5.10;;;;;;;14.07;100.00;101259.75;4989111;28;20581;-74
2023/08/05 03:36:15;;;;;;;10.93;5.00;;;;;;;14.08;100.00;101263.34;4989297;28;20054;-75
2023/08/05 03:38:42;;;;;;;11.75;4.50;;;;;;;14.09;100.00;101259.31;4988156;28;20463;-74
2023/08/05 03:41:08;;;;;;;13.82;5.10;;;;;;;14.09;100.00;101253.72;4990315;28;20495;-75
2023/08/05 03:43:35;;;;;;;15.20;5.43;;;;;;;14.11;100.00;101249.28;4989167;28;20574;-75
2023/08/05 03:46:01;;;;;;;15.52;5.45;;;;;;;14.12;100.00;101248.06;4989878;28;20054;-76
2023/08/05 03:48:28;;;;;;;18.20;4.95;;;;;;;14.14;100.00;101247.63;4989808;28;20142;-73
2023/08/05 03:50:55;;;;;;;10.23;4.55;;;;;;;14.17;100.00;101255.16;4989261;28;20088;-75
2023/08/05 03:53:22;;;;;;;12.88;5.40;;;;;;;14.18;100.00;101251.94;4988221;28;20129;-74
2023/08/05 03:55:48;;;;;;;12.02;5.05;;;;;;;14.20;100.00;101257.09;4988464;28;20058;-74
2023/08/05 03:58:18;;;;;;;13.18;5.00;;;;;;;14.22;100.00;101252.66;4988353;28;20459;-74
2023/08/05 04:00:45;;;;;;;14.05;5.20;;;;;;;14.23;100.00;101245.84;4986176;28;20838;-78
2023/08/05 04:03:12;;;;;;;12.65;5.20;;;;;;;14.28;100.00;101245.34;4988917;28;20069;-76
2023/08/05 04:05:40;;;;;;;10.57;4.50;;;;;;;14.29;100.00;101240.53;4989637;28;20058;-74
2023/08/05 04:08:06;;;;;;;10.68;4.43;;;;;;;14.31;100.00;101246.47;4987583;28;20140;-77
2023/08/05 04:10:34;;;;;;;11.02;4.65;;;;;;;14.29;100.00;101237.75;4995114;28;20062;-73
2023/08/05 04:13:03;;;;;;;10.57;4.70;;;;;;;14.31;100.00;101233.28;4989464;28;20737;-76
2023/08/05 04:15:33;;;;;;;14.05;5.72;;;;;;;14.29;100.00;101246.94;4988180;28;20082;-77
2023/08/05 04:18:00;;;;;;;11.82;5.05;;;;;;;14.29;100.00;101246.94;4989724;28;20158;-76
2023/08/05 04:20:27;;;;;;;11.90;5.15;;;;;;;14.22;100.00;101249.06;4995119;28;20086;-72
2023/08/05 04:22:53;;;;;;;14.93;5.25;;;;;;;14.27;100.00;101254.16;4988723;28;20046;-75
2023/08/05 04:25:20;;;;;;;13.30;4.90;;;;;;;14.30;100.00;101248.50;4989581;28;20057;-77
2023/08/05 04:27:47;;;;;;;13.25;4.82;;;;;;;14.35;100.00;101238.84;4986302;28;20065;-72
2023/08/05 04:30:13;;;;;;;14.02;5.07;;;;;;;14.37;100.00;101245.56;4988434;28;20058;-76
2023/08/05 04:32:40;;;;;;;10.68;5.00;;;;;;;14.30;100.00;101245.72;4989802;28;20091;-76
2023/08/05 04:35:07;;;;;;;12.85;5.40;;;;;;;14.14;100.00;101242.84;4987726;28;20120;-75
2023/08/05 04:37:34;;;;;;;14.25;6.15;;;;;;;14.13;100.00;101243.25;4988497;28;20602;-74
2023/08/05 04:40:00;;;;;;;11.35;5.65;;;;;;;14.23;100.00;101231.06;4988305;28;20507;-76
2023/08/05 04:42:27;;;;;;;15.13;6.20;;;;;;;14.30;100.00;101220.53;4988654;28;20050;-74
2023/08/05 04:44:55;;;;;;;13.38;6.53;;;;;;;14.38;100.00;101218.38;4987948;28;20100;-77
2023/08/05 04:47:21;;;;;;;12.20;5.90;;;;;;;14.42;100.00;101211.50;4988131;28;20503;-74
2023/08/05 04:49:48;;;;;;;18.85;5.93;;;;;;;14.47;100.00;101204.63;4988079;28;20058;-74
2023/08/05 04:52:15;;;;;;;16.23;5.63;;;;;;;14.51;100.00;101205.31;4987952;28;20050;-76
2023/08/05 04:54:43;;;;;;;12.10;4.93;;;;;;;14.57;100.00;101207.19;4988045;28;20093;-75
2023/08/05 04:57:11;;;;;;;13.82;5.68;;;;;;;14.60;100.00;101205.53;4984638;28;20050;-77
2023/08/05 04:59:38;;;;;;;12.95;5.82;;;;;;;14.61;100.00;101191.13;4991262;28;20104;-76
2023/08/05 05:02:04;;;;;;;13.68;5.28;;;;;;;14.66;100.00;101204.59;4987413;28;20741;-73
2023/08/05 05:04:31;;;;;;;16.38;6.82;;;;;;;14.70;100.00;101205.31;4988180;28;20062;-76
2023/08/05 05:06:58;;;;;;;11.95;5.22;;;;;;;14.75;100.00;101201.97;4986939;28;20408;-77
2023/08/05 05:09:24;;;;;;;15.75;5.53;;;;;;;14.78;100.00;101197.53;4986083;28;20105;-76
2023/08/05 05:11:53;;;;;;;10.68;5.22;;;;;;;14.77;100.00;101191.16;4985061;28;20046;-77
2023/08/05 05:14:20;;;;;;;19.30;6.90;;;;;;;14.83;100.00;101192.19;4985703;28;20088;-77
2023/08/05 05:16:47;;;;;;;18.45;7.97;;;;;;;14.87;100.00;101197.72;4987671;28;20062;-75
2023/08/05 05:19:14;;;;;;;15.30;7.25;;;;;;;14.86;100.00;101199.72;4988039;28;20137;-71
2023/08/05 05:21:41;;;;;;;19.83;7.85;;;;;;;14.96;100.00;101189.53;4987581;28;20133;-74
2023/08/05 05:24:07;;;;;;;19.58;10.10;;;;;;;15.01;100.00;101197.38;4986491;28;20105;-75
2023/08/05 05:26:34;;;;;;;21.40;8.13;;;;;;;14.92;100.00;101194.38;4984352;28;20050;-74
2023/08/05 05:29:00;;;;;;;22.55;10.63;;;;;;;14.95;100.00;101199.91;4987991;28;20064;-76
2023/08/05 05:31:27;;;;;;;20.58;9.93;;;;;;;14.99;100.00;101194.25;4987085;28;20054;-74
2023/08/05 05:33:54;;;;;;;19.55;9.43;;;;;;;15.10;100.00;101202.38;4986883;28;20573;-75
2023/08/05 05:36:20;;;;;;;16.95;7.72;;;;;;;15.07;100.00;101211.66;4987012;28;20078;-76
2023/08/05 05:38:47;;;;;;;20.45;8.15;;;;;;;15.04;100.00;101213.31;4987492;28;20129;-75
2023/08/05 05:41:14;;;;;;;21.20;8.25;;;;;;;14.99;100.00;101222.25;4987113;28;20047;-77
2023/08/05 05:43:40;;;;;;;17.23;8.07;;;;;;;15.00;100.00;101223.81;4986465;28;20084;-77
2023/08/05 05:46:07;;;;;;;19.85;11.10;;;;;;;15.03;100.00;101220.16;4987338;28;20077;-75
2023/08/05 05:48:33;;;;;;;19.13;10.27;;;;;;;14.94;100.00;101225.56;4987463;28;20112;-75
2023/08/05 05:51:00;;;;;;;18.30;8.13;;;;;;;14.96;100.00;101228.72;4987951;28;20140;-74
2023/08/05 05:53:26;;;;;;;20.08;8.52;;;;;;;14.91;100.00;101220.81;4987788;28;20134;-75
2023/08/05 05:55:53;;;;;;;18.48;8.95;;;;;;;14.92;100.00;101205.59;4972086;28;20093;-74
2023/08/05 05:58:20;;;;;;;25.73;11.55;;;;;;;14.94;100.00;101211.56;4987109;28;20050;-77
2023/08/05 06:00:46;;;;;;;21.05;9.50;;;;;;;15.00;100.00;101207.78;4984672;28;20042;-74
2023/08/05 06:03:13;;;;;;;23.60;10.27;;;;;;;14.98;100.00;101215.84;4987196;28;20234;-74
2023/08/05 06:05:40;;;;;;;20.27;9.38;;;;;;;15.05;100.00;101216.91;4986474;28;20629;-75
2023/08/05 06:08:06;;;;;;;18.55;9.13;;;;;;;15.13;100.00;101212.72;4987017;28;20054;-73
2023/08/05 06:10:37;;;;;;;18.58;9.10;;;;;;;15.07;100.00;101217.25;4987265;28;20082;-73
2023/08/05 06:13:04;;;;;;;21.10;9.82;;;;;;;15.21;100.00;101222.50;4986688;28;20058;-74
2023/08/05 06:15:31;;;;;;;20.73;9.38;;;;;;;15.25;100.00;101228.84;4988003;28;20050;-75
2023/08/05 06:17:58;;;;;;;23.25;10.48;;;;;;;15.47;100.00;101227.09;4985266;28;20058;-76
2023/08/05 06:20:24;;;;;;;20.45;10.55;;;;;;;15.63;100.00;101233.47;4984468;28;20055;-73
2023/08/05 06:22:51;;;;;;;22.33;9.85;;;;;;;15.68;100.00;101230.13;4986045;28;20097;-76
2023/08/05 06:25:17;;;;;;;22.35;10.93;;;;;;;15.79;100.00;101219.44;4986513;28;20104;-75
2023/08/05 06:27:44;;;;;;;25.45;10.77;;;;;;;15.85;100.00;101200.06;4990369;28;20077;-72
2023/08/05 06:30:11;;;;;;;21.05;10.75;;;;;;;15.81;100.00;101200.16;4990501;28;20078;-80
2023/08/05 06:32:37;;;;;;;21.45;11.20;;;;;;;15.88;100.00;101199.97;4990610;28;20415;-80
2023/08/05 06:35:04;;;;;;;19.17;9.52;;;;;;;15.70;100.00;101196.06;4990314;28;20561;-80
2023/08/05 06:37:31;;;;;;;23.77;12.15;;;;;;;15.90;100.00;101208.69;4973395;28;20538;-78
2023/08/05 06:39:57;;;;;;;18.13;9.40;;;;;;;15.85;100.00;101200.84;4989321;28;20136;-78
2023/08/05 06:42:25;;;;;;;20.92;9.63;;;;;;;15.83;100.00;101196.91;4991264;28;20125;-83
2023/08/05 06:44:52;;;;;;;23.08;9.43;;;;;;;15.91;100.00;101195.47;4991029;28;20070;-78
2023/08/05 06:47:19;;;;;;;20.95;10.20;;;;;;;16.06;100.00;101193.84;4992584;28;20050;-79
2023/08/05 06:49:46;;;;;;;23.58;10.45;;;;;;;16.12;100.00;101198.47;4989286;28;20430;-80
2023/08/05 06:52:12;;;;;;;21.10;10.02;;;;;;;16.11;100.00;101191.31;4989504;28;20492;-80
2023/08/05 06:54:39;;;;;;;25.00;8.65;;;;;;;16.14;100.00;101190.38;4989164;28;20108;-80
2023/08/05 06:57:06;;;;;;;21.88;9.35;;;;;;;16.15;100.00;101188.38;4988393;28;20078;-81
2023/08/05 06:59:33;;;;;;;24.77;10.20;;;;;;;16.24;100.00;101180.13;4990099;28;20054;-79
2023/08/05 07:02:00;;;;;;;18.73;9.00;;;;;;;16.24;100.00;101185.72;4989844;28;20050;-80
2023/08/05 07:04:27;;;;;;;18.08;8.07;;;;;;;16.22;100.00;101176.97;4989660;28;20104;-77
2023/08/05 07:06:53;;;;;;;19.10;7.97;;;;;;;16.18;100.00;101171.47;4989513;28;20050;-80
2023/08/05 07:09:20;;;;;;;11.63;4.03;;;;;;;16.16;100.00;101157.09;4974529;28;20054;-81
2023/08/05 07:11:47;;;;;;;18.35;7.70;;;;;;;16.46;100.00;101153.81;4973840;28;20553;-75
2023/08/05 07:14:13;;;;;;;19.65;9.00;;;;;;;16.55;100.00;101147.53;4990283;28;20046;-79
2023/08/05 07:16:40;;;;;;;21.98;9.55;;;;;;;16.58;100.00;101150.22;4994640;28;20054;-81
2023/08/05 07:19:07;;;;;;;25.83;8.18;;;;;;;16.66;100.00;101145.16;4995053;28;20114;-79
2023/08/05 07:21:37;;;;;;;20.20;8.23;;;;;;;16.79;100.00;101129.91;4995503;28;20050;-80
2023/08/05 07:24:03;;;;;;;15.95;6.45;;;;;;;16.85;100.00;101136.50;4993264;28;20078;-80
2023/08/05 07:26:31;;;;;;;9.15;3.70;;;;;;;16.74;100.00;101132.47;4995143;28;20054;-80
2023/08/05 07:28:57;;;;;;;22.77;8.48;;;;;;;17.00;100.00;101117.16;4995156;28;20050;-80
2023/08/05 07:31:24;;;;;;;17.40;8.57;;;;;;;17.14;100.00;101116.72;4996634;28;20137;-80
2023/08/05 07:33:51;;;;;;;25.05;9.65;;;;;;;17.03;100.00;101110.66;4991025;28;20054;-79
2023/08/05 07:36:22;;;;;;;18.42;9.20;;;;;;;17.24;100.00;101112.75;4994504;28;20115;-79
2023/08/05 07:38:50;;;;;;;18.50;8.85;;;;;;;16.97;100.00;101102.00;4992882;28;20205;-78
2023/08/05 07:41:16;;;;;;;19.95;10.05;;;;;;;17.11;100.00;101107.19;4995382;28;20054;-78
2023/08/05 07:43:43;;;;;;;14.63;5.40;;;;;;;17.13;100.00;101104.72;4993763;28;20042;-81
2023/08/05 07:46:13;;;;;;;19.48;9.95;;;;;;;17.35;100.00;101091.47;4994277;28;20161;-83
2023/08/05 07:48:42;;;;;;;19.42;8.95;;;;;;;17.56;100.00;101084.34;4994453;28;20054;-80
2023/08/05 07:51:08;;;;;;;18.67;7.18;;;;;;;17.60;100.00;101076.53;4990730;28;20069;-81
2023/08/05 07:53:36;;;;;;;14.35;6.70;;;;;;;17.84;100.00;101063.59;4992263;28;20054;-81
2023/08/05 07:56:10;;;;;;;20.20;6.72;;;;;;;17.72;100.00;101072.09;4988728;28;20719;-77
2023/08/05 07:58:40;;;;;;;19.65;8.27;;;;;;;17.76;100.00;101064.31;4986203;28;20455;-76
2023/08/05 08:01:07;;;;;;;17.10;6.72;;;;;;;17.73;100.00;101056.78;4986319;28;20077;-76
2023/08/05 08:03:34;;;;;;;12.18;4.53;;;;;;;17.57;100.00;101056.97;4984396;28;20068;-78
2023/08/05 08:06:01;;;;;;;7.95;2.13;;;;;;;17.58;100.00;101045.28;4987932;28;20074;-73
2023/08/05 08:08:27;;;;;;;11.35;3.25;;;;;;;17.80;100.00;101040.44;4989840;28;20073;-74
2023/08/05 08:10:54;;;;;;;9.77;4.00;;;;;;;17.59;100.00;101034.84;4989497;28;20082;-80
2023/08/05 08:13:21;;;;;;;14.13;5.22;;;;;;;17.48;100.00;101043.66;4989789;28;20506;-77
2023/08/05 08:15:47;;;;;;;6.97;3.20;;;;;;;17.22;100.00;101053.44;4987975;28;20094;-77
2023/08/05 08:18:14;;;;;;;16.90;8.52;;;;;;;17.18;100.00;101058.38;4987168;28;20081;-81
2023/08/05 08:20:40;;;;;;;5.80;2.70;;;;;;;16.92;100.00;101042.81;4988908;28;20054;-81
2023/08/05 08:23:07;;;;;;;11.52;5.22;;;;;;;17.07;100.00;101049.50;4979884;28;20061;-78
2023/08/05 08:25:35;;;;;;;20.45;8.90;;;;;;;17.20;100.00;101041.84;4979651;28;20053;-81
2023/08/05 08:28:02;;;;;;;18.38;8.82;;;;;;;17.24;100.00;101040.50;4980248;28;20077;-81
2023/08/05 08:30:28;;;;;;;23.70;11.50;;;;;;;17.24;100.00;101040.50;4980557;28;20129;-77
2023/08/05 08:32:55;;;;;;;18.63;9.77;;;;;;;17.33;100.00;101043.41;4984272;28;20097;-81
2023/08/05 08:35:22;;;;;;;18.35;7.93;;;;;;;17.36;100.00;101036.06;4989576;28;20057;-79
2023/08/05 08:37:48;;;;;;;23.40;9.88;;;;;;;17.26;100.00;101038.00;4988756;28;20054;-81
2023/08/05 08:40:15;;;;;;;13.90;5.85;;;;;;;17.21;100.00;101035.78;4987256;28;20050;-78
2023/08/05 08:42:42;;;;;;;19.67;9.32;;;;;;;17.30;100.00;101035.09;4986581;28;20066;-79
2023/08/05 08:45:13;;;;;;;23.40;12.05;;;;;;;17.42;100.00;101023.78;4987247;28;20055;-78
2023/08/05 08:47:39;;;;;;;22.73;12.30;;;;;;;17.53;100.00;101022.59;4982405;28;20070;-82
2023/08/05 08:50:07;;;;;;;25.85;11.48;;;;;;;17.47;100.00;101011.16;4987974;28;20076;-76
2023/08/05 08:52:35;;;;;;;26.73;11.18;;;;;;;17.41;100.00;101021.41;4984224;28;20074;-82
2023/08/05 08:55:03;;;;;;;22.10;10.75;;;;;;;17.40;100.00;101008.63;4987682;28;20332;-78
2023/08/05 08:57:30;;;;;;;22.58;10.80;;;;;;;17.46;100.00;101008.81;4990583;28;20058;-80
2023/08/05 08:59:56;;;;;;;22.15;11.18;;;;;;;17.62;100.00;101003.00;4982566;28;20050;-80
2023/08/05 09:02:24;;;;;;;18.52;8.60;;;;;;;17.59;100.00;100999.06;4980796;28;20145;-78
2023/08/05 09:04:54;;;;;;;18.98;8.40;;;;;;;17.40;100.00;100997.38;4985778;28;20100;-77
2023/08/05 09:07:27;;;;;;;28.50;12.48;;;;;;;17.50;100.00;100993.38;4984359;28;20050;-80
2023/08/05 09:09:54;;;;;;;19.38;8.63;;;;;;;17.84;100.00;100990.47;4988919;28;20430;-80
2023/08/05 09:12:21;;;;;;;20.17;8.52;;;;;;;18.02;100.00;100992.63;4986890;28;20556;-79
2023/08/05 09:14:56;;;;;;;18.42;8.45;;;;;;;18.21;100.00;100974.56;4986026;28;20100;-78
2023/08/05 09:17:23;;;;;;;9.88;3.85;;;;;;;18.38;100.00;100973.84;4981643;28;21837;-77
2023/08/05 09:19:49;;;;;;;13.50;5.70;;;;;;;18.41;100.00;100966.47;4986909;28;20069;-82
2023/08/05 09:22:16;;;;;;;11.57;4.88;;;;;;;18.45;100.00;100967.13;4986737;28;20050;-80
2023/08/05 09:24:42;;;;;;;16.48;6.88;;;;;;;18.64;100.00;100963.88;4983174;28;20177;-79
2023/08/05 09:27:09;;;;;;;16.25;7.07;;;;;;;18.83;100.00;100954.22;4984381;28;20085;-81
2023/08/05 09:29:36;;;;;;;18.73;7.13;;;;;;;18.71;100.00;100951.53;4984264;28;20471;-79
2023/08/05 09:32:04;;;;;;;12.85;4.85;;;;;;;18.52;100.00;100947.91;4979393;28;20050;-77
2023/08/05 09:34:38;;;;;;;21.77;10.57;;;;;;;18.58;100.00;100943.22;4981300;28;20078;-78
2023/08/05 09:37:08;;;;;;;20.77;9.60;;;;;;;18.51;100.00;100946.34;4987646;28;20105;-78
2023/08/05 09:39:47;;;;;;;7.95;3.17;;;;;;;18.46;100.00;100940.56;4982656;28;20124;-80
2023/08/05 09:42:21;;;;;;;22.77;11.30;;;;;;;18.79;100.00;100935.91;4985926;28;20046;-78
2023/08/05 09:44:48;;;;;;;20.23;8.98;;;;;;;18.60;100.00;100925.88;4985174;28;20228;-76
2023/08/05 09:47:20;;;;;;;20.63;8.63;;;;;;;18.92;100.00;100937.34;4980132;28;20106;-80
2023/08/05 09:49:49;;;;;;;25.88;11.85;;;;;;;19.01;100.00;100926.03;4980484;28;20514;-81
2023/08/05 09:52:18;;;;;;;19.63;10.82;;;;;;;19.38;100.00;100921.16;4984106;28;20105;-79
2023/08/05 09:55:00;;;;;;;23.52;10.70;;;;;;;19.44;100.00;100903.13;4987772;28;20129;-81
2023/08/05 09:57:29;;;;;;;20.35;9.35;;;;;;;19.67;100.00;100907.31;4969191;28;20129;-79
2023/08/05 09:59:58;;;;;;;15.60;7.68;;;;;;;19.50;100.00;100900.47;4983057;28;20073;-81
2023/08/05 10:02:25;;;;;;;18.77;8.90;;;;;;;19.41;100.00;100906.13;4982149;28;21209;-81
2023/08/05 10:04:53;;;;;;;16.40;7.63;;;;;;;19.27;100.00;100916.00;4988461;28;20049;-76
2023/08/05 10:07:22;;;;;;;18.13;8.70;;;;;;;19.19;100.00;100909.13;4986339;28;20525;-79
2023/08/05 10:09:50;;;;;;;22.52;10.05;;;;;;;19.07;100.00;100907.25;4988944;28;20190;-81
2023/08/05 10:12:20;;;;;;;19.75;10.15;;;;;;;19.45;100.00;100903.91;4989142;28;20073;-76
2023/08/05 10:14:48;;;;;;;21.77;11.68;;;;;;;19.49;100.00;100893.28;4989339;28;20046;-78
2023/08/05 10:17:16;;;;;;;11.98;5.32;;;;;;;19.14;100.00;100892.84;4990651;28;20062;-81
2023/08/05 10:19:50;;;;;;;12.77;4.93;;;;;;;19.23;100.00;100886.41;4993766;28;20057;-80
2023/08/05 10:22:24;;;;;;;19.20;9.38;;;;;;;19.62;100.00;100882.56;4986767;28;20046;-80
2023/08/05 10:24:59;;;;;;;17.47;5.87;;;;;;;19.59;100.00;100883.53;4988457;28;20153;-80
2023/08/05 10:27:44;;;;;;;18.08;8.05;;;;;;;19.44;100.00;100874.13;4987732;28;20042;-81
2023/08/05 10:30:13;;;;;;;14.50;6.55;;;;;;;19.53;100.00;100865.69;4990100;28;20058;-83
2023/08/05 10:33:04;;;;;;;18.20;8.85;;;;;;;19.57;100.00;100863.47;4967285;28;20096;-83
2023/08/05 10:35:39;;;;;;;7.07;3.13;;;;;;;19.56;100.00;100861.91;4991583;28;20054;-78
2023/08/05 10:38:09;;;;;;;18.92;9.82;;;;;;;19.69;100.00;100851.22;4979380;28;20394;-76
2023/08/05 10:41:03;;;;;;;10.85;4.65;;;;;;;19.55;100.00;100849.06;4989587;28;20665;-82
2023/08/05 10:43:32;;;;;;;17.98;8.82;;;;;;;19.62;100.00;100843.09;4986764;28;20058;-78
2023/08/05 10:46:05;;;;;;;22.67;10.95;;;;;;;19.83;100.00;100839.22;4991112;28;20045;-80
2023/08/05 10:48:41;;;;;;;17.52;8.65;;;;;;;19.89;100.00;100848.59;4992032;28;20046;-79
2023/08/05 10:51:10;;;;;;;21.55;10.98;;;;;;;19.91;100.00;100829.13;4988888;28;20853;-77
2023/08/05 10:53:37;;;;;;;21.13;11.02;;;;;;;19.86;100.00;100831.84;4987283;28;20116;-78
2023/08/05 10:56:12;;;;;;;11.50;4.72;;;;;;;19.99;100.00;100829.56;4991971;28;20074;-81
2023/08/05 10:58:49;;;;;;;19.60;9.33;;;;;;;20.17;100.00;100823.78;4991451;28;20117;-81
2023/08/05 11:01:17;;;;;;;13.63;4.65;;;;;;;19.88;100.00;100818.81;4983862;28;20157;-74
2023/08/05 11:03:52;;;;;;;14.73;6.53;;;;;;;20.20;100.00;100817.19;4988728;28;20057;-80
2023/08/05 11:06:25;;;;;;;12.13;4.75;;;;;;;20.30;100.00;100813.06;4984042;28;20046;-81
2023/08/05 11:08:52;;;;;;;15.85;8.35;;;;;;;20.75;100.00;100810.63;4992719;28;20566;-79
2023/08/05 11:11:19;;;;;;;19.10;9.30;;;;;;;21.08;100.00;100808.44;4964911;28;20050;-80